Time;durP1;ratioP1;P1;durP2;ratioP2;P2;SDS_P1;SDS_P2;PMS_P1;PMS_P2;Temp;Humidity;BMP_temperature;BMP_pressure;BME280_temperature;BME280_humidity;BME280_pressure;Samples;Min_cycle;Max_cycle;Signal;HPM_P1;HPM_P2
2023/01/19 04:00:58;;;;;;;;;;;1.50;99.90;;;;;;5908498;23;19925;-72
2023/01/19 04:03:25;;;;;;;;;;;1.60;99.90;;;;;;4946861;29;19933;-72
2023/01/19 04:05:52;;;;;;;;;;;1.60;99.90;;;;;;4926734;29;20301;-71
2023/01/19 04:08:18;;;;;;;;;;;1.60;99.90;;;;;;4924941;29;20010;-73
2023/01/19 04:10:45;;;;;;;;;;;1.60;99.90;;;;;;4936551;29;20461;-74
2023/01/19 04:13:11;;;;;;;;;;;1.60;99.90;;;;;;4908636;29;19928;-73
2023/01/19 04:15:38;;;;;;;;;;;1.60;99.90;;;;;;4913168;29;19934;-71
2023/01/19 04:18:06;;;;;;;;;;;1.60;99.90;;;;;;4919293;29;19933;-71
2023/01/19 04:20:33;;;;;;;;;;;1.70;99.90;;;;;;4917557;29;19927;-72
2023/01/19 04:23:00;;;;;;;;;;;1.70;99.90;;;;;;4917776;29;20402;-73
2023/01/19 04:25:27;;;;;;;;;;;1.70;99.90;;;;;;4918071;29;19927;-72
2023/01/19 04:27:54;;;;;;;;;;;1.70;99.90;;;;;;4921178;29;19987;-72
2023/01/19 04:30:21;;;;;;;;;;;1.70;99.90;;;;;;4916156;29;20022;-72
2023/01/19 04:32:48;;;;;;;;;;;1.80;99.90;;;;;;4917508;29;19927;-72
2023/01/19 04:35:16;;;;;;;;;;;1.80;99.90;;;;;;4917520;29;19978;-70
2023/01/19 04:37:43;;;;;;;;;;;1.80;99.90;;;;;;4917179;29;20418;-72
2023/01/19 04:40:11;;;;;;;;;;;1.90;99.90;;;;;;4913421;29;19931;-72
2023/01/19 04:42:37;;;;;;;;;;;1.90;99.90;;;;;;4917481;29;19975;-72
2023/01/19 04:45:04;;;;;;;;;;;1.90;99.90;;;;;;4919558;29;19958;-72
2023/01/19 04:47:31;;;;;;;;;;;2.00;99.90;;;;;;4917026;29;20405;-71
2023/01/19 04:49:57;;;;;;;;;;;2.00;99.90;;;;;;4918028;29;20018;-73
2023/01/19 04:52:25;;;;;;;;;;;2.10;99.90;;;;;;4911040;29;20425;-72
2023/01/19 04:54:52;;;;;;;;;;;2.10;99.90;;;;;;4917040;29;20394;-72
2023/01/19 04:57:18;;;;;;;;;;;2.20;99.90;;;;;;4924573;29;19950;-72
2023/01/19 04:59:45;;;;;;;;;;;2.20;99.90;;;;;;4919900;29;20030;-72
2023/01/19 05:02:12;;;;;;;;;;;2.20;99.90;;;;;;4921360;29;19967;-72
2023/01/19 05:04:38;;;;;;;;;;;2.20;99.90;;;;;;4918267;29;19987;-72
2023/01/19 05:07:05;;;;;;;;;;;2.20;99.90;;;;;;4917908;29;19994;-72
2023/01/19 05:09:33;;;;;;;;;;;2.20;99.90;;;;;;4916782;29;20027;-71
2023/01/19 05:11:59;;;;;;;;;;;2.20;99.90;;;;;;4917002;29;19927;-72
2023/01/19 05:14:26;;;;;;;;;;;2.20;99.90;;;;;;4923502;29;20413;-70
2023/01/19 05:16:52;;;;;;;;;;;2.10;99.90;;;;;;4917156;29;19963;-71
2023/01/19 05:19:20;;;;;;;;;;;2.10;99.90;;;;;;4919043;29;19927;-71
2023/01/19 05:21:46;;;;;;;;;;;2.00;99.90;;;;;;4924355;29;19928;-71
2023/01/19 05:24:14;;;;;;;;;;;2.00;99.90;;;;;;4918208;29;19927;-72
2023/01/19 05:26:42;;;;;;;;;;;2.00;99.90;;;;;;4921727;29;19931;-71
2023/01/19 05:29:08;;;;;;;;;;;1.90;99.90;;;;;;4916286;29;20022;-70
2023/01/19 05:31:35;;;;;;;;;;;1.80;99.90;;;;;;4916941;29;19935;-72
2023/01/19 05:34:02;;;;;;;;;;;1.70;99.90;;;;;;4917910;29;20298;-72
2023/01/19 05:36:29;;;;;;;;;;;1.20;99.90;;;;;;4915621;29;19974;-73
2023/01/19 05:38:56;;;;;;;;;;;1.10;99.90;;;;;;4906684;29;20276;-71
2023/01/19 05:41:22;;;;;;;;;;;1.00;99.90;;;;;;4914702;29;19973;-70
2023/01/19 05:43:50;;;;;;;;;;;1.00;99.90;;;;;;4916675;29;19970;-71
2023/01/19 05:46:17;;;;;;;;;;;1.00;99.90;;;;;;4915826;29;19927;-70
2023/01/19 05:48:44;;;;;;;;;;;0.70;99.90;;;;;;4914981;29;19927;-72
2023/01/19 05:51:11;;;;;;;;;;;0.60;99.90;;;;;;4915195;29;19937;-72
2023/01/19 05:53:37;;;;;;;;;;;0.60;99.90;;;;;;4914943;29;20298;-72
2023/01/19 05:56:06;;;;;;;;;;;0.50;99.90;;;;;;4917448;29;19927;-72
2023/01/19 05:58:34;;;;;;;;;;;0.50;99.90;;;;;;4909745;29;19958;-72
2023/01/19 06:01:04;;;;;;;;;;;0.50;99.90;;;;;;4914314;29;19982;-70
2023/01/19 06:03:31;;;;;;;;;;;0.50;99.90;;;;;;4911357;29;19931;-71
2023/01/19 06:05:58;;;;;;;;;;;0.50;99.90;;;;;;4917232;29;19935;-69
2023/01/19 06:08:25;;;;;;;;;;;0.50;99.90;;;;;;4913982;29;19927;-70
2023/01/19 06:10:52;;;;;;;;;;;0.50;99.90;;;;;;4906692;29;19931;-71
2023/01/19 06:13:18;;;;;;;;;;;0.50;99.90;;;;;;4913661;29;19927;-70
2023/01/19 06:15:45;;;;;;;;;;;0.50;99.90;;;;;;4914651;29;20393;-70
2023/01/19 06:18:14;;;;;;;;;;;0.50;99.90;;;;;;4914656;29;19935;-70
2023/01/19 06:20:41;;;;;;;;;;;0.60;99.90;;;;;;4913824;29;19938;-70
2023/01/19 06:23:09;;;;;;;;;;;0.60;99.90;;;;;;4914417;29;19927;-70
2023/01/19 06:25:36;;;;;;;;;;;0.60;99.90;;;;;;4914406;29;19927;-70
2023/01/19 06:28:02;;;;;;;;;;;0.50;99.90;;;;;;4914464;29;19927;-71
2023/01/19 06:30:29;;;;;;;;;;;0.40;99.90;;;;;;4913558;29;19927;-72
2023/01/19 06:32:56;;;;;;;;;;;0.40;99.90;;;;;;4914311;29;20018;-69
2023/01/19 06:35:24;;;;;;;;;;;0.40;99.90;;;;;;4914334;29;20299;-72
2023/01/19 06:37:52;;;;;;;;;;;0.40;99.90;;;;;;4913866;29;19935;-70
2023/01/19 06:40:18;;;;;;;;;;;0.40;99.90;;;;;;4913502;29;19938;-70
2023/01/19 06:42:45;;;;;;;;;;;0.50;99.90;;;;;;4914874;29;19927;-71
2023/01/19 06:45:12;;;;;;;;;;;0.50;99.90;;;;;;4917659;29;19927;-70
2023/01/19 06:47:39;;;;;;;;;;;0.50;99.90;;;;;;4920131;29;19935;-70
2023/01/19 06:50:06;;;;;;;;;;;0.50;99.90;;;;;;4913995;29;19983;-71
2023/01/19 06:52:41;;;;;;;;;;;0.50;99.90;;;;;;4913293;29;20385;-70
2023/01/19 06:55:09;;;;;;;;;;;0.60;99.90;;;;;;4916488;29;19935;-71
2023/01/19 06:57:37;;;;;;;;;;;0.60;99.90;;;;;;4907397;29;19927;-71
2023/01/19 07:00:06;;;;;;;;;;;0.70;99.90;;;;;;4913267;29;19927;-70
2023/01/19 07:02:33;;;;;;;;;;;0.70;99.90;;;;;;4916010;29;19928;-71
2023/01/19 07:05:00;;;;;;;;;;;0.70;99.90;;;;;;4915022;29;19934;-71
2023/01/19 07:07:27;;;;;;;;;;;0.70;99.90;;;;;;4914534;29;19931;-71
2023/01/19 07:09:55;;;;;;;;;;;0.70;99.90;;;;;;4913329;29;19971;-71
2023/01/19 07:12:22;;;;;;;;;;;0.70;99.90;;;;;;4918291;29;19934;-69
2023/01/19 07:14:49;;;;;;;;;;;0.70;99.90;;;;;;4917401;29;19991;-70
2023/01/19 07:17:16;;;;;;;;;;;0.70;99.90;;;;;;4913592;29;19927;-69
2023/01/19 07:19:43;;;;;;;;;;;0.70;99.90;;;;;;4915074;29;19927;-69
2023/01/19 07:22:10;;;;;;;;;;;0.70;99.90;;;;;;4916062;29;19930;-69
2023/01/19 07:24:36;;;;;;;;;;;0.70;99.90;;;;;;4904791;29;19979;-70
2023/01/19 07:27:05;;;;;;;;;;;0.70;99.90;;;;;;4911645;29;19927;-69
2023/01/19 07:29:32;;;;;;;;;;;0.70;99.90;;;;;;4908634;29;19954;-69
2023/01/19 07:31:58;;;;;;;;;;;0.70;99.90;;;;;;4916502;29;19983;-69
2023/01/19 07:34:25;;;;;;;;;;;0.70;99.90;;;;;;4913183;29;19953;-69
2023/01/19 07:36:52;;;;;;;;;;;0.80;99.90;;;;;;4913556;29;19931;-68
2023/01/19 07:39:19;;;;;;;;;;;0.80;99.90;;;;;;4911479;29;19979;-68
2023/01/19 07:41:47;;;;;;;;;;;0.80;99.90;;;;;;4916819;29;19931;-70
2023/01/19 07:44:15;;;;;;;;;;;0.90;99.90;;;;;;4913358;29;19931;-69
2023/01/19 07:46:42;;;;;;;;;;;0.90;99.90;;;;;;4913216;29;19931;-70
2023/01/19 07:49:10;;;;;;;;;;;0.90;99.90;;;;;;4916193;29;19931;-69
2023/01/19 07:51:37;;;;;;;;;;;0.90;99.90;;;;;;4913437;29;20306;-69
2023/01/19 07:54:04;;;;;;;;;;;0.90;99.90;;;;;;4916475;29;19931;-69
2023/01/19 07:56:31;;;;;;;;;;;0.90;99.90;;;;;;4913458;29;20047;-69
2023/01/19 07:58:58;;;;;;;;;;;1.00;99.90;;;;;;4912909;29;19931;-70
2023/01/19 08:01:26;;;;;;;;;;;1.00;99.90;;;;;;4913397;29;20354;-70
2023/01/19 08:03:53;;;;;;;;;;;1.00;99.90;;;;;;4913064;29;19990;-70
2023/01/19 08:06:21;;;;;;;;;;;1.00;99.90;;;;;;4916800;29;20369;-67
2023/01/19 08:08:49;;;;;;;;;;;1.10;99.90;;;;;;4911025;29;19931;-69
2023/01/19 08:11:16;;;;;;;;;;;1.10;99.90;;;;;;4912891;29;19934;-69
2023/01/19 08:13:43;;;;;;;;;;;1.20;99.90;;;;;;4913207;29;19931;-70
2023/01/19 08:16:10;;;;;;;;;;;1.20;99.90;;;;;;4913189;29;20473;-70
2023/01/19 08:18:38;;;;;;;;;;;1.20;99.90;;;;;;4912835;29;19934;-69
2023/01/19 08:21:05;;;;;;;;;;;1.20;99.90;;;;;;4912857;29;19931;-69
2023/01/19 08:23:32;;;;;;;;;;;1.30;99.90;;;;;;4912985;29;19927;-72
2023/01/19 08:25:58;;;;;;;;;;;1.30;99.90;;;;;;4914782;29;19978;-70
2023/01/19 08:28:25;;;;;;;;;;;1.30;99.90;;;;;;4916101;29;19927;-68
2023/01/19 08:30:54;;;;;;;;;;;1.40;99.90;;;;;;4915827;29;20014;-71
2023/01/19 08:33:21;;;;;;;;;;;1.40;99.90;;;;;;4908805;29;19927;-70
2023/01/19 08:35:51;;;;;;;;;;;1.40;99.90;;;;;;4913586;29;19927;-72
2023/01/19 08:38:18;;;;;;;;;;;1.40;99.90;;;;;;4916404;29;19927;-69
2023/01/19 08:40:45;;;;;;;;;;;1.40;99.90;;;;;;4919410;29;19927;-71
2023/01/19 08:43:12;;;;;;;;;;;1.40;99.90;;;;;;4918040;29;19971;-69
2023/01/19 08:45:45;;;;;;;;;;;1.50;99.90;;;;;;4918456;29;19934;-70
2023/01/19 08:48:12;;;;;;;;;;;1.50;99.90;;;;;;4918592;29;19931;-68
2023/01/19 08:50:39;;;;;;;;;;;1.50;99.90;;;;;;4908909;29;19935;-68
2023/01/19 08:53:07;;;;;;;;;;;1.60;99.90;;;;;;4915911;29;20401;-70
2023/01/19 08:55:34;;;;;;;;;;;1.60;99.90;;;;;;4915812;29;19930;-70
2023/01/19 08:58:02;;;;;;;;;;;1.50;99.90;;;;;;4919170;29;19992;-70
2023/01/19 09:00:30;;;;;;;;;;;1.60;99.90;;;;;;4915157;29;19966;-69
2023/01/19 09:02:58;;;;;;;;;;;1.60;99.90;;;;;;4915301;29;19934;-70
2023/01/19 09:05:24;;;;;;;;;;;1.60;99.90;;;;;;4916748;29;19962;-72
2023/01/19 09:07:51;;;;;;;;;;;1.60;99.90;;;;;;4915537;29;19931;-70
2023/01/19 09:10:20;;;;;;;;;;;1.60;99.90;;;;;;4914982;29;19975;-71
2023/01/19 09:12:46;;;;;;;;;;;1.70;99.90;;;;;;4915354;29;20351;-71
2023/01/19 09:15:13;;;;;;;;;;;1.70;99.90;;;;;;4918972;29;19939;-70
2023/01/19 09:17:41;;;;;;;;;;;1.70;99.90;;;;;;4915824;29;20037;-70
2023/01/19 09:20:08;;;;;;;;;;;1.70;99.90;;;;;;4914921;29;20412;-71
2023/01/19 09:22:35;;;;;;;;;;;1.80;99.90;;;;;;4915221;29;20450;-70
2023/01/19 09:25:01;;;;;;;;;;;1.80;99.90;;;;;;4915344;29;19935;-70
2023/01/19 09:27:30;;;;;;;;;;;1.80;99.90;;;;;;4915786;29;19927;-70
2023/01/19 09:29:57;;;;;;;;;;;1.80;99.90;;;;;;4914682;29;20362;-71
2023/01/19 09:32:24;;;;;;;;;;;1.80;99.90;;;;;;4918741;29;20034;-72
2023/01/19 09:34:51;;;;;;;;;;;1.80;99.90;;;;;;4915047;29;19978;-71
2023/01/19 09:37:18;;;;;;;;;;;1.80;99.90;;;;;;4915174;29;19927;-70
2023/01/19 09:39:44;;;;;;;;;;;1.90;99.90;;;;;;4913613;29;19942;-70
2023/01/19 09:42:16;;;;;;;;;;;1.90;99.90;;;;;;4915013;29;20346;-70
2023/01/19 09:44:45;;;;;;;;;;;2.00;99.90;;;;;;4910929;29;20352;-71
2023/01/19 09:47:14;;;;;;;;;;;2.00;99.90;;;;;;4915270;29;19950;-70
2023/01/19 09:49:42;;;;;;;;;;;2.00;99.90;;;;;;4914153;29;20023;-70
2023/01/19 09:52:10;;;;;;;;;;;2.10;99.90;;;;;;4913596;29;20057;-72
2023/01/19 09:54:43;;;;;;;;;;;2.10;99.90;;;;;;4914694;29;20030;-70
2023/01/19 09:57:09;;;;;;;;;;;2.10;99.90;;;;;;4916005;29;19926;-70
2023/01/19 09:59:37;;;;;;;;;;;2.10;99.90;;;;;;4914286;29;19927;-70
2023/01/19 10:02:18;;;;;;;;;;;2.10;99.90;;;;;;4917067;29;19931;-71
2023/01/19 10:04:53;;;;;;;;;;;2.20;99.90;;;;;;4914612;29;19930;-70
2023/01/19 10:07:26;;;;;;;;;;;2.30;99.90;;;;;;4915649;29;19935;-72
2023/01/19 10:10:05;;;;;;;;;;;2.30;99.90;;;;;;4914696;29;19934;-69
2023/01/19 10:12:38;;;;;;;;;;;2.20;99.90;;;;;;4919421;29;19975;-70
2023/01/19 10:15:12;;;;;;;;;;;2.30;99.90;;;;;;4914416;29;19978;-71
2023/01/19 10:17:47;;;;;;;;;;;2.30;99.90;;;;;;4912783;29;19927;-72
2023/01/19 10:20:16;;;;;;;;;;;2.40;99.90;;;;;;4914069;29;19927;-71
2023/01/19 10:22:45;;;;;;;;;;;2.50;99.90;;;;;;4911260;29;19962;-71
2023/01/19 10:25:16;;;;;;;;;;;2.60;99.90;;;;;;4909208;29;19931;-71
2023/01/19 10:27:45;;;;;;;;;;;2.60;99.90;;;;;;4914227;29;19982;-71
2023/01/19 10:30:16;;;;;;;;;;;2.80;99.90;;;;;;4914679;29;19927;-71
2023/01/19 10:32:44;;;;;;;;;;;3.10;99.90;;;;;;4912909;29;20417;-70
2023/01/19 10:35:20;;;;;;;;;;;3.20;99.90;;;;;;4913234;29;19927;-71
2023/01/19 10:37:47;;;;;;;;;;;3.30;99.90;;;;;;4914821;29;19994;-71
2023/01/19 10:40:18;;;;;;;;;;;3.80;99.90;;;;;;4912611;29;19935;-71
2023/01/19 10:42:45;;;;;;;;;;;4.10;99.90;;;;;;4914476;29;19931;-71
2023/01/19 10:45:15;;;;;;;;;;;3.60;99.90;;;;;;4914114;29;19927;-70
2023/01/19 10:47:42;;;;;;;;;;;4.10;99.90;;;;;;4917157;29;19927;-71
2023/01/19 10:50:22;;;;;;;;;;;4.90;99.90;;;;;;4913080;29;19928;-72
2023/01/19 10:52:50;;;;;;;;;;;5.00;99.90;;;;;;4916099;29;19931;-71
2023/01/19 10:55:24;;;;;;;;;;;4.30;99.90;;;;;;4913933;29;19927;-72
2023/01/19 10:57:52;;;;;;;;;;;4.00;99.90;;;;;;4915094;29;19934;-71
2023/01/19 11:00:29;;;;;;;;;;;5.10;99.90;;;;;;4917020;29;19983;-70
2023/01/19 11:02:56;;;;;;;;;;;4.50;99.90;;;;;;4914946;29;19928;-71
2023/01/19 11:05:26;;;;;;;;;;;3.90;99.90;;;;;;4913530;29;19927;-70
2023/01/19 11:07:53;;;;;;;;;;;4.10;99.90;;;;;;4914194;29;19932;-72
2023/01/19 11:10:21;;;;;;;;;;;5.40;99.90;;;;;;4910739;29;19934;-72
2023/01/19 11:12:56;;;;;;;;;;;7.10;99.90;;;;;;4913515;29;19927;-71
2023/01/19 11:15:24;;;;;;;;;;;6.40;99.90;;;;;;4910003;29;19934;-71
2023/01/19 11:17:52;;;;;;;;;;;5.60;99.90;;;;;;4913678;29;19963;-70
2023/01/19 11:20:20;;;;;;;;;;;4.60;99.90;;;;;;4912993;29;19935;-72
2023/01/19 11:22:48;;;;;;;;;;;4.60;99.90;;;;;;4913248;29;19959;-71
2023/01/19 11:25:21;;;;;;;;;;;5.60;99.90;;;;;;4916806;29;19991;-72
2023/01/19 11:27:50;;;;;;;;;;;5.40;99.90;;;;;;4913261;29;20382;-69
2023/01/19 11:30:18;;;;;;;;;;;4.80;99.90;;;;;;4913377;29;20382;-71
2023/01/19 11:32:45;;;;;;;;;;;4.50;99.90;;;;;;4913941;29;19934;-71
2023/01/19 11:35:31;;;;;;;;;;;4.20;99.90;;;;;;4913551;29;19927;-72
2023/01/19 11:38:06;;;;;;;;;;;4.00;99.90;;;;;;4912532;29;19935;-72
2023/01/19 11:40:33;;;;;;;;;;;3.80;99.90;;;;;;4913168;29;19935;-72
2023/01/19 11:43:01;;;;;;;;;;;3.70;99.90;;;;;;4915972;29;19963;-71
2023/01/19 11:45:27;;;;;;;;;;;3.80;99.90;;;;;;4913441;29;19927;-73
2023/01/19 11:47:55;;;;;;;;;;;4.30;99.90;;;;;;4913320;29;19975;-71
2023/01/19 11:50:23;;;;;;;;;;;4.30;99.90;;;;;;4918650;29;19927;-69
2023/01/19 11:52:52;;;;;;;;;;;4.50;99.90;;;;;;4913143;29;19927;-70
2023/01/19 11:55:22;;;;;;;;;;;5.30;99.90;;;;;;4913112;29;20474;-71
2023/01/19 11:57:50;;;;;;;;;;;6.20;99.90;;;;;;4916597;29;20318;-72
2023/01/19 12:00:24;;;;;;;;;;;5.60;99.90;;;;;;4912841;29;19927;-71
2023/01/19 12:02:53;;;;;;;;;;;5.50;99.90;;;;;;4912955;29;19927;-70
2023/01/19 12:05:21;;;;;;;;;;;5.10;99.90;;;;;;4917808;29;19934;-71
2023/01/19 12:07:48;;;;;;;;;;;4.60;99.90;;;;;;4911608;29;19987;-69
2023/01/19 12:10:20;;;;;;;;;;;4.20;99.90;;;;;;4914132;29;20375;-71
2023/01/19 12:12:49;;;;;;;;;;;4.10;99.90;;;;;;4917660;29;19935;-71
2023/01/19 12:15:21;;;;;;;;;;;4.40;99.90;;;;;;4916689;29;20018;-71
2023/01/19 12:17:49;;;;;;;;;;;4.00;99.90;;;;;;4916802;29;19931;-71
2023/01/19 12:20:22;;;;;;;;;;;4.00;99.90;;;;;;4915921;29;19935;-71
2023/01/19 12:22:59;;;;;;;;;;;4.00;99.90;;;;;;4916451;29;19974;-70
2023/01/19 12:25:41;;;;;;;;;;;3.90;99.90;;;;;;4915571;29;20351;-71
2023/01/19 12:28:11;;;;;;;;;;;3.80;99.90;;;;;;4923605;29;19928;-72
2023/01/19 12:30:38;;;;;;;;;;;3.60;99.90;;;;;;4916002;29;19927;-69
2023/01/19 12:33:22;;;;;;;;;;;3.50;99.90;;;;;;4916544;29;20351;-71
2023/01/19 12:35:56;;;;;;;;;;;3.40;99.90;;;;;;4918296;29;19931;-69
2023/01/19 12:38:33;;;;;;;;;;;3.30;99.90;;;;;;4913612;29;20029;-71
2023/01/19 12:41:20;;;;;;;;;;;3.20;99.90;;;;;;4909338;29;19927;-69
2023/01/19 12:43:49;;;;;;;;;;;3.30;99.90;;;;;;4915920;29;19928;-71
2023/01/19 12:46:19;;;;;;;;;;;3.30;99.90;;;;;;4916280;29;19963;-70
2023/01/19 12:48:46;;;;;;;;;;;3.40;99.90;;;;;;4918933;29;20473;-71
2023/01/19 12:51:22;;;;;;;;;;;3.40;99.90;;;;;;4916175;29;20414;-71
2023/01/19 12:53:51;;;;;;;;;;;3.40;99.90;;;;;;4915826;29;19935;-73
2023/01/19 12:56:18;;;;;;;;;;;3.40;99.90;;;;;;4916166;29;19927;-70
2023/01/19 12:58:49;;;;;;;;;;;3.50;99.90;;;;;;4920232;29;19926;-71
2023/01/19 13:01:19;;;;;;;;;;;3.40;99.90;;;;;;4916199;29;20362;-71
2023/01/19 13:03:58;;;;;;;;;;;3.20;99.90;;;;;;4915851;29;20382;-71
2023/01/19 13:06:39;;;;;;;;;;;3.20;99.90;;;;;;4912420;29;19926;-70
2023/01/19 13:09:27;;;;;;;;;;;3.20;99.90;;;;;;4912950;29;19931;-71
2023/01/19 13:12:09;;;;;;;;;;;3.20;99.90;;;;;;4922923;29;19931;-70
2023/01/19 13:14:37;;;;;;;;;;;3.20;99.90;;;;;;4915475;29;20449;-71
2023/01/19 13:17:28;;;;;;;;;;;3.10;99.90;;;;;;4917932;29;19927;-72
2023/01/19 13:20:13;;;;;;;;;;;3.10;99.90;;;;;;4911792;29;19931;-71
2023/01/19 13:23:13;;;;;;;;;;;3.10;99.90;;;;;;4918161;29;19927;-71
2023/01/19 13:25:40;;;;;;;;;;;3.00;99.90;;;;;;4928611;29;19927;-70
2023/01/19 13:28:09;;;;;;;;;;;3.10;99.90;;;;;;4915356;29;19935;-71
2023/01/19 13:30:39;;;;;;;;;;;3.00;99.90;;;;;;4915861;29;19927;-71
2023/01/19 13:33:14;;;;;;;;;;;3.00;99.90;;;;;;4915361;29;19935;-70
2023/01/19 13:35:47;;;;;;;;;;;3.00;99.90;;;;;;4916566;29;19927;-73
2023/01/19 13:38:14;;;;;;;;;;;3.00;99.90;;;;;;4913758;29;20007;-70
2023/01/19 13:40:41;;;;;;;;;;;3.10;99.90;;;;;;4906990;29;19935;-70
2023/01/19 13:43:14;;;;;;;;;;;3.10;99.90;;;;;;4915395;29;19941;-71
2023/01/19 13:45:45;;;;;;;;;;;3.10;99.90;;;;;;4915119;29;19935;-72
2023/01/19 13:48:15;;;;;;;;;;;3.20;99.90;;;;;;4914880;29;19934;-69
2023/01/19 13:50:44;;;;;;;;;;;3.20;99.90;;;;;;4914611;29;19928;-70
2023/01/19 13:53:19;;;;;;;;;;;3.20;99.90;;;;;;4914744;29;19933;-71
2023/01/19 13:55:46;;;;;;;;;;;3.20;99.90;;;;;;4916228;29;19956;-71
2023/01/19 13:58:20;;;;;;;;;;;3.20;99.90;;;;;;4915256;29;19975;-73
2023/01/19 14:00:49;;;;;;;;;;;3.10;99.90;;;;;;4903415;29;20398;-70
2023/01/19 14:03:20;;;;;;;;;;;3.10;99.90;;;;;;4914802;29;19935;-71
2023/01/19 14:05:49;;;;;;;;;;;3.10;99.90;;;;;;4910828;29;19975;-71
2023/01/19 14:08:17;;;;;;;;;;;3.10;99.90;;;;;;4914511;29;19927;-69
2023/01/19 14:10:44;;;;;;;;;;;3.10;99.90;;;;;;4914189;29;19927;-70
2023/01/19 14:13:15;;;;;;;;;;;3.10;99.90;;;;;;4903603;29;20004;-71
2023/01/19 14:15:42;;;;;;;;;;;3.10;99.90;;;;;;4913313;29;19927;-70
2023/01/19 14:18:25;;;;;;;;;;;3.10;99.90;;;;;;4914104;29;19994;-70
2023/01/19 14:20:53;;;;;;;;;;;3.10;99.90;;;;;;4914201;29;20030;-67
2023/01/19 14:23:37;;;;;;;;;;;3.10;99.90;;;;;;4913795;29;19927;-69
2023/01/19 14:26:03;;;;;;;;;;;3.10;99.90;;;;;;4913952;29;19975;-74
2023/01/19 14:28:39;;;;;;;;;;;3.10;99.90;;;;;;4913936;29;19978;-73
2023/01/19 14:31:19;;;;;;;;;;;3.10;99.90;;;;;;4913783;29;19931;-73
2023/01/19 14:33:48;;;;;;;;;;;3.10;99.90;;;;;;4918658;29;19927;-72
2023/01/19 14:36:27;;;;;;;;;;;3.00;99.90;;;;;;4914346;29;20266;-71
2023/01/19 14:38:54;;;;;;;;;;;3.00;99.90;;;;;;4919219;29;19927;-73
2023/01/19 14:41:26;;;;;;;;;;;3.00;99.90;;;;;;4900466;29;19934;-72
2023/01/19 14:43:54;;;;;;;;;;;2.90;99.90;;;;;;4915091;29;19927;-73
2023/01/19 14:46:21;;;;;;;;;;;2.90;99.90;;;;;;4914501;29;19985;-72
2023/01/19 14:48:51;;;;;;;;;;;2.90;99.90;;;;;;4913077;29;19931;-73
2023/01/19 14:51:20;;;;;;;;;;;2.90;99.90;;;;;;4914232;29;19927;-72
2023/01/19 14:53:48;;;;;;;;;;;2.90;99.90;;;;;;4913336;29;20048;-73
2023/01/19 14:56:24;;;;;;;;;;;2.90;99.90;;;;;;4914118;29;19935;-72
2023/01/19 14:58:51;;;;;;;;;;;2.90;99.90;;;;;;4914113;29;19931;-72
2023/01/19 15:01:18;;;;;;;;;;;2.90;99.90;;;;;;4910698;29;19931;-72
2023/01/19 15:03:44;;;;;;;;;;;2.90;99.90;;;;;;4914136;29;20378;-72
2023/01/19 15:06:14;;;;;;;;;;;2.90;99.90;;;;;;4913560;29;19927;-72
2023/01/19 15:08:41;;;;;;;;;;;2.80;99.90;;;;;;4913469;29;19931;-74
2023/01/19 15:11:09;;;;;;;;;;;2.80;99.90;;;;;;4913765;29;19927;-69
2023/01/19 15:13:37;;;;;;;;;;;2.80;99.90;;;;;;4913561;29;19982;-72
2023/01/19 15:16:05;;;;;;;;;;;2.90;99.90;;;;;;4913566;29;19934;-73
2023/01/19 15:18:32;;;;;;;;;;;3.20;99.90;;;;;;4912543;29;19927;-72
2023/01/19 15:21:01;;;;;;;;;;;3.50;99.90;;;;;;4913071;29;19931;-72
2023/01/19 15:23:29;;;;;;;;;;;4.10;99.90;;;;;;4913607;29;19933;-74
2023/01/19 15:25:59;;;;;;;;;;;4.50;99.90;;;;;;4913525;29;19958;-73
2023/01/19 15:28:25;;;;;;;;;;;4.30;99.90;;;;;;4913469;29;20029;-72
2023/01/19 15:30:52;;;;;;;;;;;4.00;99.90;;;;;;4913379;29;19927;-72
2023/01/19 15:33:20;;;;;;;;;;;3.70;99.90;;;;;;4918078;29;19934;-71
2023/01/19 15:35:47;;;;;;;;;;;3.50;99.90;;;;;;4913530;29;19935;-73
2023/01/19 15:38:13;;;;;;;;;;;3.40;99.90;;;;;;4913417;29;19931;-74
2023/01/19 15:40:42;;;;;;;;;;;3.20;99.90;;;;;;4912861;29;19982;-72
2023/01/19 15:43:09;;;;;;;;;;;3.10;99.90;;;;;;4914963;29;19931;-74
2023/01/19 15:45:37;;;;;;;;;;;3.10;99.90;;;;;;4913470;29;19927;-73
2023/01/19 15:48:04;;;;;;;;;;;3.00;99.90;;;;;;4918587;29;19987;-73
2023/01/19 15:50:32;;;;;;;;;;;3.00;99.90;;;;;;4916653;29;19978;-74
2023/01/19 15:52:59;;;;;;;;;;;2.90;99.90;;;;;;4920945;29;19926;-72
2023/01/19 15:55:26;;;;;;;;;;;2.80;99.90;;;;;;4912418;29;20351;-73
2023/01/19 15:57:57;;;;;;;;;;;2.80;99.90;;;;;;4912645;29;19927;-70
2023/01/19 16:00:24;;;;;;;;;;;2.70;99.90;;;;;;4912646;29;19927;-73
2023/01/19 16:02:50;;;;;;;;;;;2.60;99.90;;;;;;4987234;23;19926;-73
2023/01/19 16:05:17;;;;;;;;;;;2.60;99.90;;;;;;4986380;28;20041;-70
2023/01/19 16:07:44;;;;;;;;;;;2.50;99.90;;;;;;4983078;28;19926;-67
2023/01/19 16:10:12;;;;;;;;;;;2.50;99.90;;;;;;4978676;28;19949;-70
2023/01/19 16:12:39;;;;;;;;;;;2.50;99.90;;;;;;4969539;28;20373;-69
2023/01/19 16:15:08;;;;;;;;;;;2.50;99.90;;;;;;4968678;28;19965;-69
2023/01/19 16:17:35;;;;;;;;;;;2.50;99.90;;;;;;4967503;28;19962;-69
2023/01/19 16:20:02;;;;;;;;;;;2.50;99.90;;;;;;4963716;28;20361;-69
2023/01/19 16:22:29;;;;;;;;;;;2.40;99.90;;;;;;4970543;28;19938;-69
2023/01/19 16:24:57;;;;;;;;;;;2.40;99.90;;;;;;4972756;28;19930;-68
2023/01/19 16:27:24;;;;;;;;;;;2.40;99.90;;;;;;4970407;28;19933;-72
2023/01/19 16:29:52;;;;;;;;;;;2.30;99.90;;;;;;4967711;28;19933;-69
2023/01/19 16:32:20;;;;;;;;;;;2.30;99.90;;;;;;4973767;28;19926;-69
2023/01/19 16:34:47;;;;;;;;;;;2.30;99.90;;;;;;4971760;28;20016;-69
2023/01/19 16:37:13;;;;;;;;;;;2.30;99.90;;;;;;4973497;28;19933;-69
2023/01/19 16:39:42;;;;;;;;;;;2.20;99.90;;;;;;4969736;28;19926;-69
2023/01/19 16:42:09;;;;;;;;;;;2.20;99.90;;;;;;4969414;28;19933;-71
2023/01/19 16:44:36;;;;;;;;;;;2.20;99.90;;;;;;4971236;28;19926;-69
2023/01/19 16:47:02;;;;;;;;;;;2.20;99.90;;;;;;4971342;28;19934;-69
2023/01/19 16:49:31;;;;;;;;;;;2.20;99.90;;;;;;4972980;28;19926;-70
2023/01/19 16:51:58;;;;;;;;;;;2.20;99.90;;;;;;4970160;28;19930;-69
2023/01/19 16:54:25;;;;;;;;;;;2.20;99.90;;;;;;4973979;28;19981;-69
2023/01/19 16:56:52;;;;;;;;;;;2.20;99.90;;;;;;4971215;28;20381;-69
2023/01/19 16:59:19;;;;;;;;;;;2.20;99.90;;;;;;4971938;28;19926;-69
2023/01/19 17:01:46;;;;;;;;;;;2.30;99.90;;;;;;4971217;28;20354;-71
2023/01/19 17:04:13;;;;;;;;;;;2.30;99.90;;;;;;4971849;28;19930;-71
2023/01/19 17:06:42;;;;;;;;;;;2.40;99.90;;;;;;4970712;28;19933;-70
2023/01/19 17:09:09;;;;;;;;;;;2.40;99.90;;;;;;4969996;28;19961;-69
2023/01/19 17:11:36;;;;;;;;;;;2.40;99.90;;;;;;4968404;28;19955;-69
2023/01/19 17:14:04;;;;;;;;;;;2.40;99.90;;;;;;4968365;28;19926;-72
2023/01/19 17:16:32;;;;;;;;;;;2.30;99.90;;;;;;4973270;28;19933;-73
2023/01/19 17:19:00;;;;;;;;;;;2.20;99.90;;;;;;4965850;28;19978;-70
2023/01/19 17:21:27;;;;;;;;;;;2.20;99.90;;;;;;4967463;28;20021;-69
2023/01/19 17:23:58;;;;;;;;;;;2.10;99.90;;;;;;4969890;28;19926;-70
2023/01/19 17:26:29;;;;;;;;;;;2.00;99.90;;;;;;4965721;28;19930;-69
2023/01/19 17:28:59;;;;;;;;;;;2.00;99.90;;;;;;4965616;28;19926;-70
2023/01/19 17:31:26;;;;;;;;;;;1.90;99.90;;;;;;4964080;28;20441;-69
2023/01/19 17:33:53;;;;;;;;;;;1.90;99.90;;;;;;4970958;28;19926;-69
2023/01/19 17:36:21;;;;;;;;;;;1.90;99.90;;;;;;4965769;28;19926;-67
2023/01/19 17:38:48;;;;;;;;;;;1.80;99.90;;;;;;4970854;28;19930;-69
2023/01/19 17:41:16;;;;;;;;;;;1.80;99.90;;;;;;4967396;28;19934;-69
2023/01/19 17:43:43;;;;;;;;;;;1.80;99.90;;;;;;4970012;28;20381;-69
2023/01/19 17:46:10;;;;;;;;;;;1.70;99.90;;;;;;4964989;28;19926;-70
2023/01/19 17:48:37;;;;;;;;;;;1.60;99.90;;;;;;4959402;28;20405;-73
2023/01/19 17:51:04;;;;;;;;;;;1.60;99.90;;;;;;4966733;28;19927;-69
2023/01/19 17:53:31;;;;;;;;;;;1.60;99.90;;;;;;4968593;28;20285;-69
2023/01/19 17:56:02;;;;;;;;;;;1.60;99.90;;;;;;4965396;28;19938;-69
2023/01/19 17:58:31;;;;;;;;;;;1.60;99.90;;;;;;4963269;28;19926;-70
2023/01/19 18:00:58;;;;;;;;;;;1.50;99.90;;;;;;4963835;28;20042;-70
2023/01/19 18:03:24;;;;;;;;;;;1.50;99.90;;;;;;4967854;28;19926;-70
2023/01/19 18:05:55;;;;;;;;;;;1.50;99.90;;;;;;4968321;28;19926;-70
2023/01/19 18:08:22;;;;;;;;;;;1.50;99.90;;;;;;4965458;28;19926;-71
2023/01/19 18:10:53;;;;;;;;;;;1.60;99.90;;;;;;4963807;28;19937;-71
2023/01/19 18:13:19;;;;;;;;;;;1.50;99.90;;;;;;4972324;28;19926;-72
2023/01/19 18:15:48;;;;;;;;;;;1.50;99.90;;;;;;4962177;28;19934;-69
2023/01/19 18:18:14;;;;;;;;;;;1.50;99.90;;;;;;4959388;28;19941;-68
2023/01/19 18:20:43;;;;;;;;;;;1.50;99.90;;;;;;4966001;28;19927;-68
2023/01/19 18:23:10;;;;;;;;;;;1.50;99.90;;;;;;4965849;28;20018;-69
2023/01/19 18:25:38;;;;;;;;;;;1.50;99.90;;;;;;4967441;28;19934;-71
2023/01/19 18:28:05;;;;;;;;;;;1.50;99.90;;;;;;4967948;28;19926;-70
2023/01/19 18:30:32;;;;;;;;;;;1.60;99.90;;;;;;4966003;28;20304;-71
2023/01/19 18:33:00;;;;;;;;;;;1.60;99.90;;;;;;4968601;28;19933;-69
2023/01/19 18:35:27;;;;;;;;;;;1.50;99.90;;;;;;4967389;28;19941;-72
2023/01/19 18:37:55;;;;;;;;;;;1.60;99.90;;;;;;4966121;28;19926;-70
2023/01/19 18:40:22;;;;;;;;;;;1.50;99.90;;;;;;4966529;28;20460;-70